sensor_id;sensor_type;location;lat;lon;timestamp;temperature;humidity
61016;DHT22;46902;52.920;6.536;2022-11-15T00:00:47;8.40;99.90
61016;DHT22;46902;52.920;6.536;2022-11-15T00:03:14;8.40;99.90
61016;DHT22;46902;52.920;6.536;2022-11-15T00:05:40;8.40;99.90
61016;DHT22;46902;52.920;6.536;2022-11-15T00:08:06;8.40;99.90
61016;DHT22;46902;52.920;6.536;2022-11-15T00:10:31;8.50;99.90
61016;DHT22;46902;52.920;6.536;2022-11-15T00:12:57;8.40;99.90
61016;DHT22;46902;52.920;6.536;2022-11-15T00:15:22;8.50;99.90
61016;DHT22;46902;52.920;6.536;2022-11-15T00:17:49;8.50;99.90
61016;DHT22;46902;52.920;6.536;2022-11-15T00:20:15;8.50;99.90
61016;DHT22;46902;52.920;6.536;2022-11-15T00:22:40;8.60;99.90
61016;DHT22;46902;52.920;6.536;2022-11-15T00:25:06;8.60;99.90
61016;DHT22;46902;52.920;6.536;2022-11-15T00:27:32;8.60;99.90
61016;DHT22;46902;52.920;6.536;2022-11-15T00:29:57;8.60;99.90
61016;DHT22;46902;52.920;6.536;2022-11-15T00:32:23;8.60;99.90
61016;DHT22;46902;52.920;6.536;2022-11-15T00:34:48;8.60;99.90
61016;DHT22;46902;52.920;6.536;2022-11-15T00:37:14;8.60;99.90
61016;DHT22;46902;52.920;6.536;2022-11-15T00:39:39;8.60;99.90
61016;DHT22;46902;52.920;6.536;2022-11-15T00:42:05;8.60;99.90
61016;DHT22;46902;52.920;6.536;2022-11-15T00:44:30;8.50;99.90
61016;DHT22;46902;52.920;6.536;2022-11-15T00:46:56;8.60;99.90
61016;DHT22;46902;52.920;6.536;2022-11-15T00:49:21;8.50;99.90
61016;DHT22;46902;52.920;6.536;2022-11-15T00:51:47;8.50;99.90
61016;DHT22;46902;52.920;6.536;2022-11-15T00:54:12;8.60;99.90
61016;DHT22;46902;52.920;6.536;2022-11-15T00:56:39;8.50;99.90
61016;DHT22;46902;52.920;6.536;2022-11-15T00:59:04;8.50;99.90
61016;DHT22;46902;52.920;6.536;2022-11-15T01:01:30;8.50;99.90
61016;DHT22;46902;52.920;6.536;2022-11-15T01:03:55;8.50;99.90
61016;DHT22;46902;52.920;6.536;2022-11-15T01:06:21;8.50;99.90
61016;DHT22;46902;52.920;6.536;2022-11-15T01:08:46;8.50;99.90
61016;DHT22;46902;52.920;6.536;2022-11-15T01:11:12;8.50;99.90
61016;DHT22;46902;52.920;6.536;2022-11-15T01:13:38;8.50;99.90
61016;DHT22;46902;52.920;6.536;2022-11-15T01:16:10;8.40;99.90
61016;DHT22;46902;52.920;6.536;2022-11-15T01:18:36;8.40;99.90
61016;DHT22;46902;52.920;6.536;2022-11-15T01:21:10;8.40;99.90
61016;DHT22;46902;52.920;6.536;2022-11-15T01:23:36;8.40;99.90
61016;DHT22;46902;52.920;6.536;2022-11-15T01:26:03;8.40;99.90
61016;DHT22;46902;52.920;6.536;2022-11-15T01:28:31;8.30;99.90
61016;DHT22;46902;52.920;6.536;2022-11-15T01:31:00;8.30;99.90
61016;DHT22;46902;52.920;6.536;2022-11-15T01:33:26;8.30;99.90
61016;DHT22;46902;52.920;6.536;2022-11-15T01:35:52;8.30;99.90
61016;DHT22;46902;52.920;6.536;2022-11-15T01:38:18;8.20;99.90
61016;DHT22;46902;52.920;6.536;2022-11-15T01:40:43;8.30;99.90
61016;DHT22;46902;52.920;6.536;2022-11-15T01:43:25;8.30;99.90
61016;DHT22;46902;52.920;6.536;2022-11-15T01:46:25;8.30;99.90
61016;DHT22;46902;52.920;6.536;2022-11-15T01:48:53;8.30;99.90
61016;DHT22;46902;52.920;6.536;2022-11-15T01:51:21;8.30;99.90
61016;DHT22;46902;52.920;6.536;2022-11-15T01:53:53;8.30;99.90
61016;DHT22;46902;52.920;6.536;2022-11-15T01:56:23;8.30;99.90
61016;DHT22;46902;52.920;6.536;2022-11-15T01:58:50;8.30;99.90
61016;DHT22;46902;52.920;6.536;2022-11-15T02:01:17;8.40;99.90
61016;DHT22;46902;52.920;6.536;2022-11-15T02:03:56;8.30;99.90
61016;DHT22;46902;52.920;6.536;2022-11-15T02:06:23;8.40;99.90
61016;DHT22;46902;52.920;6.536;2022-11-15T02:08:49;8.40;99.90
61016;DHT22;46902;52.920;6.536;2022-11-15T02:11:15;8.40;99.90
61016;DHT22;46902;52.920;6.536;2022-11-15T02:13:41;8.40;99.90
61016;DHT22;46902;52.920;6.536;2022-11-15T02:28:16;8.40;99.90
61016;DHT22;46902;52.920;6.536;2022-11-15T02:31:03;8.40;99.90
61016;DHT22;46902;52.920;6.536;2022-11-15T02:41:35;8.50;99.90
61016;DHT22;46902;52.920;6.536;2022-11-15T02:44:08;8.50;99.90
61016;DHT22;46902;52.920;6.536;2022-11-15T02:46:38;8.50;99.90
61016;DHT22;46902;52.920;6.536;2022-11-15T02:49:27;8.40;99.90
61016;DHT22;46902;52.920;6.536;2022-11-15T02:51:54;8.40;99.90
61016;DHT22;46902;52.920;6.536;2022-11-15T02:54:26;8.50;99.90
61016;DHT22;46902;52.920;6.536;2022-11-15T02:56:57;8.40;99.90
61016;DHT22;46902;52.920;6.536;2022-11-15T03:04:58;8.50;99.90
61016;DHT22;46902;52.920;6.536;2022-11-15T03:10:05;8.60;99.90
61016;DHT22;46902;52.920;6.536;2022-11-15T03:15:44;8.60;99.90
61016;DHT22;46902;52.920;6.536;2022-11-15T03:18:23;8.60;99.90
61016;DHT22;46902;52.920;6.536;2022-11-15T03:20:53;8.60;99.90
61016;DHT22;46902;52.920;6.536;2022-11-15T03:23:20;8.60;99.90
61016;DHT22;46902;52.920;6.536;2022-11-15T03:25:48;8.60;99.90
61016;DHT22;46902;52.920;6.536;2022-11-15T03:28:25;8.60;99.90
61016;DHT22;46902;52.920;6.536;2022-11-15T03:30:54;8.70;99.90
61016;DHT22;46902;52.920;6.536;2022-11-15T03:33:21;8.70;99.90
61016;DHT22;46902;52.920;6.536;2022-11-15T03:35:47;8.70;99.90
61016;DHT22;46902;52.920;6.536;2022-11-15T03:38:25;8.70;99.90
61016;DHT22;46902;52.920;6.536;2022-11-15T03:40:59;8.80;99.90
61016;DHT22;46902;52.920;6.536;2022-11-15T03:43:41;8.80;99.90
61016;DHT22;46902;52.920;6.536;2022-11-15T03:46:14;8.80;99.90
61016;DHT22;46902;52.920;6.536;2022-11-15T03:48:52;8.70;99.90
61016;DHT22;46902;52.920;6.536;2022-11-15T03:51:19;8.70;99.90
61016;DHT22;46902;52.920;6.536;2022-11-15T03:53:46;8.80;99.90
61016;DHT22;46902;52.920;6.536;2022-11-15T03:56:11;8.80;99.90
61016;DHT22;46902;52.920;6.536;2022-11-15T03:58:37;8.80;99.90
61016;DHT22;46902;52.920;6.536;2022-11-15T04:01:02;8.80;99.90
61016;DHT22;46902;52.920;6.536;2022-11-15T04:03:28;8.80;99.90
61016;DHT22;46902;52.920;6.536;2022-11-15T04:05:54;8.80;99.90
61016;DHT22;46902;52.920;6.536;2022-11-15T04:08:19;8.80;99.90
61016;DHT22;46902;52.920;6.536;2022-11-15T04:10:45;8.80;99.90
61016;DHT22;46902;52.920;6.536;2022-11-15T04:13:10;8.90;99.90
61016;DHT22;46902;52.920;6.536;2022-11-15T04:15:36;8.90;99.90
61016;DHT22;46902;52.920;6.536;2022-11-15T04:18:01;8.90;99.90
61016;DHT22;46902;52.920;6.536;2022-11-15T04:20:29;8.90;99.90
61016;DHT22;46902;52.920;6.536;2022-11-15T04:23:22;8.90;99.90
61016;DHT22;46902;52.920;6.536;2022-11-15T04:26:11;8.90;99.90
61016;DHT22;46902;52.920;6.536;2022-11-15T04:28:38;8.90;99.90
61016;DHT22;46902;52.920;6.536;2022-11-15T04:31:24;8.90;99.90
61016;DHT22;46902;52.920;6.536;2022-11-15T04:33:49;8.90;99.90
61016;DHT22;46902;52.920;6.536;2022-11-15T04:36:15;8.90;99.90
61016;DHT22;46902;52.920;6.536;2022-11-15T04:38:59;9.00;99.90
61016;DHT22;46902;52.920;6.536;2022-11-15T04:41:24;9.00;99.90
61016;DHT22;46902;52.920;6.536;2022-11-15T04:43:50;9.00;99.90
61016;DHT22;46902;52.920;6.536;2022-11-15T04:46:16;9.00;99.90
61016;DHT22;46902;52.920;6.536;2022-11-15T04:48:41;9.00;99.90
61016;DHT22;46902;52.920;6.536;2022-11-15T04:51:07;9.10;99.90
61016;DHT22;46902;52.920;6.536;2022-11-15T04:53:32;9.10;99.90
61016;DHT22;46902;52.920;6.536;2022-11-15T04:55:58;9.10;99.90
61016;DHT22;46902;52.920;6.536;2022-11-15T04:58:23;9.10;99.90
61016;DHT22;46902;52.920;6.536;2022-11-15T05:00:49;9.10;99.90
61016;DHT22;46902;52.920;6.536;2022-11-15T05:03:14;9.20;99.90
61016;DHT22;46902;52.920;6.536;2022-11-15T05:05:59;9.10;99.90
61016;DHT22;46902;52.920;6.536;2022-11-15T05:08:25;9.20;99.90
61016;DHT22;46902;52.920;6.536;2022-11-15T05:10:50;9.20;99.90
61016;DHT22;46902;52.920;6.536;2022-11-15T05:13:16;9.20;99.90
61016;DHT22;46902;52.920;6.536;2022-11-15T05:15:42;9.20;99.90
61016;DHT22;46902;52.920;6.536;2022-11-15T05:18:07;9.30;99.90
61016;DHT22;46902;52.920;6.536;2022-11-15T05:20:33;9.20;99.90
61016;DHT22;46902;52.920;6.536;2022-11-15T05:22:58;9.30;99.90
61016;DHT22;46902;52.920;6.536;2022-11-15T05:25:24;9.30;99.90
61016;DHT22;46902;52.920;6.536;2022-11-15T05:27:50;9.40;99.90
61016;DHT22;46902;52.920;6.536;2022-11-15T05:30:16;9.40;99.90
61016;DHT22;46902;52.920;6.536;2022-11-15T05:32:42;9.40;99.90
61016;DHT22;46902;52.920;6.536;2022-11-15T05:35:12;9.40;99.90
61016;DHT22;46902;52.920;6.536;2022-11-15T05:37:39;9.50;99.90
61016;DHT22;46902;52.920;6.536;2022-11-15T05:40:05;9.50;99.90
61016;DHT22;46902;52.920;6.536;2022-11-15T05:42:31;9.50;99.90
61016;DHT22;46902;52.920;6.536;2022-11-15T05:44:57;9.60;99.90
61016;DHT22;46902;52.920;6.536;2022-11-15T05:47:26;9.60;99.90
61016;DHT22;46902;52.920;6.536;2022-11-15T05:49:53;9.60;99.90
61016;DHT22;46902;52.920;6.536;2022-11-15T05:52:24;9.70;99.90
61016;DHT22;46902;52.920;6.536;2022-11-15T05:54:51;9.70;99.90
61016;DHT22;46902;52.920;6.536;2022-11-15T05:57:17;9.70;99.90
61016;DHT22;46902;52.920;6.536;2022-11-15T05:59:43;9.70;99.90
61016;DHT22;46902;52.920;6.536;2022-11-15T06:02:10;9.70;99.90
61016;DHT22;46902;52.920;6.536;2022-11-15T06:04:35;9.80;99.90
61016;DHT22;46902;52.920;6.536;2022-11-15T06:07:01;9.80;99.90
61016;DHT22;46902;52.920;6.536;2022-11-15T06:09:26;9.80;99.90
61016;DHT22;46902;52.920;6.536;2022-11-15T06:11:52;9.80;99.90
61016;DHT22;46902;52.920;6.536;2022-11-15T06:14:17;9.80;99.90
61016;DHT22;46902;52.920;6.536;2022-11-15T06:16:43;9.80;99.90
61016;DHT22;46902;52.920;6.536;2022-11-15T06:19:09;9.80;99.90
61016;DHT22;46902;52.920;6.536;2022-11-15T06:21:35;9.90;99.90
61016;DHT22;46902;52.920;6.536;2022-11-15T06:24:00;9.90;99.90
61016;DHT22;46902;52.920;6.536;2022-11-15T06:26:26;9.90;99.90
61016;DHT22;46902;52.920;6.536;2022-11-15T06:28:52;10.00;99.90
61016;DHT22;46902;52.920;6.536;2022-11-15T06:31:17;10.00;99.90
61016;DHT22;46902;52.920;6.536;2022-11-15T06:33:43;10.00;99.90
61016;DHT22;46902;52.920;6.536;2022-11-15T06:36:11;10.00;99.90
61016;DHT22;46902;52.920;6.536;2022-11-15T06:38:39;10.00;99.90
61016;DHT22;46902;52.920;6.536;2022-11-15T06:41:07;10.00;99.90
61016;DHT22;46902;52.920;6.536;2022-11-15T06:43:33;10.10;99.90
61016;DHT22;46902;52.920;6.536;2022-11-15T06:46:00;10.10;99.90
61016;DHT22;46902;52.920;6.536;2022-11-15T06:48:26;10.10;99.90
61016;DHT22;46902;52.920;6.536;2022-11-15T06:50:52;10.10;99.90
61016;DHT22;46902;52.920;6.536;2022-11-15T06:53:18;10.20;99.90
61016;DHT22;46902;52.920;6.536;2022-11-15T06:55:44;10.20;99.90
61016;DHT22;46902;52.920;6.536;2022-11-15T06:58:09;10.20;99.90
61016;DHT22;46902;52.920;6.536;2022-11-15T07:00:35;10.20;99.90
61016;DHT22;46902;52.920;6.536;2022-11-15T07:03:01;10.30;99.90
61016;DHT22;46902;52.920;6.536;2022-11-15T07:05:27;10.30;99.90
61016;DHT22;46902;52.920;6.536;2022-11-15T07:07:54;10.30;99.90
61016;DHT22;46902;52.920;6.536;2022-11-15T07:10:21;10.30;99.90
61016;DHT22;46902;52.920;6.536;2022-11-15T07:12:48;10.40;99.90
61016;DHT22;46902;52.920;6.536;2022-11-15T07:15:15;10.40;99.90
61016;DHT22;46902;52.920;6.536;2022-11-15T07:17:41;10.40;99.90
61016;DHT22;46902;52.920;6.536;2022-11-15T07:20:07;10.40;99.90
61016;DHT22;46902;52.920;6.536;2022-11-15T07:22:32;10.40;99.90
61016;DHT22;46902;52.920;6.536;2022-11-15T07:24:58;10.40;99.90
61016;DHT22;46902;52.920;6.536;2022-11-15T07:27:23;10.50;99.90
61016;DHT22;46902;52.920;6.536;2022-11-15T07:29:49;10.50;99.90
61016;DHT22;46902;52.920;6.536;2022-11-15T07:32:14;10.50;99.90
61016;DHT22;46902;52.920;6.536;2022-11-15T07:34:40;10.50;99.90
61016;DHT22;46902;52.920;6.536;2022-11-15T07:37:06;10.50;99.90
61016;DHT22;46902;52.920;6.536;2022-11-15T07:39:31;10.60;99.90
61016;DHT22;46902;52.920;6.536;2022-11-15T07:41:57;10.60;99.90
61016;DHT22;46902;52.920;6.536;2022-11-15T07:44:41;10.60;99.90
61016;DHT22;46902;52.920;6.536;2022-11-15T07:47:06;10.60;99.90
61016;DHT22;46902;52.920;6.536;2022-11-15T07:49:32;10.60;99.90
61016;DHT22;46902;52.920;6.536;2022-11-15T07:51:57;10.60;99.90
61016;DHT22;46902;52.920;6.536;2022-11-15T07:54:23;10.70;99.90
61016;DHT22;46902;52.920;6.536;2022-11-15T07:56:49;10.70;99.90
61016;DHT22;46902;52.920;6.536;2022-11-15T07:59:14;10.70;99.90
61016;DHT22;46902;52.920;6.536;2022-11-15T08:01:40;10.70;99.90
61016;DHT22;46902;52.920;6.536;2022-11-15T08:04:05;10.70;99.90
61016;DHT22;46902;52.920;6.536;2022-11-15T08:06:31;10.70;99.90
61016;DHT22;46902;52.920;6.536;2022-11-15T08:08:56;10.70;99.90
61016;DHT22;46902;52.920;6.536;2022-11-15T08:11:22;10.80;99.90
61016;DHT22;46902;52.920;6.536;2022-11-15T08:13:47;10.80;99.90
61016;DHT22;46902;52.920;6.536;2022-11-15T08:16:13;10.80;99.90
61016;DHT22;46902;52.920;6.536;2022-11-15T08:18:38;10.90;99.90
61016;DHT22;46902;52.920;6.536;2022-11-15T08:21:04;10.90;99.90
61016;DHT22;46902;52.920;6.536;2022-11-15T08:23:30;10.90;99.90
61016;DHT22;46902;52.920;6.536;2022-11-15T08:26:03;10.90;99.90
61016;DHT22;46902;52.920;6.536;2022-11-15T08:28:29;10.90;99.90
61016;DHT22;46902;52.920;6.536;2022-11-15T08:30:54;10.90;99.90
61016;DHT22;46902;52.920;6.536;2022-11-15T08:33:20;10.90;99.90
61016;DHT22;46902;52.920;6.536;2022-11-15T08:35:46;10.90;99.90
61016;DHT22;46902;52.920;6.536;2022-11-15T08:38:12;11.00;99.90
61016;DHT22;46902;52.920;6.536;2022-11-15T08:40:38;11.00;99.90
61016;DHT22;46902;52.920;6.536;2022-11-15T08:43:03;11.10;99.90
61016;DHT22;46902;52.920;6.536;2022-11-15T08:45:30;11.10;99.90
61016;DHT22;46902;52.920;6.536;2022-11-15T08:47:56;11.10;99.90
61016;DHT22;46902;52.920;6.536;2022-11-15T08:50:22;11.10;99.90
61016;DHT22;46902;52.920;6.536;2022-11-15T08:52:48;11.20;99.90
61016;DHT22;46902;52.920;6.536;2022-11-15T08:55:14;11.20;99.90
61016;DHT22;46902;52.920;6.536;2022-11-15T08:57:39;11.20;99.90
61016;DHT22;46902;52.920;6.536;2022-11-15T09:00:06;11.20;99.90
61016;DHT22;46902;52.920;6.536;2022-11-15T09:02:31;11.20;99.90
61016;DHT22;46902;52.920;6.536;2022-11-15T09:04:57;11.30;99.90
61016;DHT22;46902;52.920;6.536;2022-11-15T09:07:22;11.30;99.90
61016;DHT22;46902;52.920;6.536;2022-11-15T09:09:48;11.30;99.90
61016;DHT22;46902;52.920;6.536;2022-11-15T09:12:13;11.30;99.90
61016;DHT22;46902;52.920;6.536;2022-11-15T09:14:39;11.30;99.90
61016;DHT22;46902;52.920;6.536;2022-11-15T09:17:07;11.30;99.90
61016;DHT22;46902;52.920;6.536;2022-11-15T09:19:33;11.40;99.90
61016;DHT22;46902;52.920;6.536;2022-11-15T09:21:59;11.40;99.90
61016;DHT22;46902;52.920;6.536;2022-11-15T09:24:25;11.40;99.90
61016;DHT22;46902;52.920;6.536;2022-11-15T09:26:51;11.40;99.90
61016;DHT22;46902;52.920;6.536;2022-11-15T09:29:17;11.50;99.90
61016;DHT22;46902;52.920;6.536;2022-11-15T09:31:43;11.50;99.90
61016;DHT22;46902;52.920;6.536;2022-11-15T09:34:08;11.50;99.90
61016;DHT22;46902;52.920;6.536;2022-11-15T09:36:34;11.50;99.90
61016;DHT22;46902;52.920;6.536;2022-11-15T09:39:00;11.50;99.90
61016;DHT22;46902;52.920;6.536;2022-11-15T09:49:45;11.60;99.90
61016;DHT22;46902;52.920;6.536;2022-11-15T09:52:13;11.60;99.90
61016;DHT22;46902;52.920;6.536;2022-11-15T09:54:41;11.70;99.90
61016;DHT22;46902;52.920;6.536;2022-11-15T09:57:16;11.70;99.90
61016;DHT22;46902;52.920;6.536;2022-11-15T10:00:18;11.70;99.90
61016;DHT22;46902;52.920;6.536;2022-11-15T10:03:16;11.70;99.90
61016;DHT22;46902;52.920;6.536;2022-11-15T10:05:46;11.80;99.90
61016;DHT22;46902;52.920;6.536;2022-11-15T10:11:08;11.80;99.90
61016;DHT22;46902;52.920;6.536;2022-11-15T10:13:41;11.80;99.90
61016;DHT22;46902;52.920;6.536;2022-11-15T10:17:07;11.80;99.90
61016;DHT22;46902;52.920;6.536;2022-11-15T10:19:56;11.80;99.90
61016;DHT22;46902;52.920;6.536;2022-11-15T10:22:25;11.80;99.90
61016;DHT22;46902;52.920;6.536;2022-11-15T10:25:01;11.80;99.90
61016;DHT22;46902;52.920;6.536;2022-11-15T10:27:35;11.90;99.90
61016;DHT22;46902;52.920;6.536;2022-11-15T10:30:01;11.90;99.90
61016;DHT22;46902;52.920;6.536;2022-11-15T10:32:29;11.90;99.90
61016;DHT22;46902;52.920;6.536;2022-11-15T10:34:58;11.90;99.90
61016;DHT22;46902;52.920;6.536;2022-11-15T10:37:31;12.00;99.90
61016;DHT22;46902;52.920;6.536;2022-11-15T10:40:16;12.00;99.90
61016;DHT22;46902;52.920;6.536;2022-11-15T10:42:42;12.10;99.90
61016;DHT22;46902;52.920;6.536;2022-11-15T10:45:29;12.10;99.90
61016;DHT22;46902;52.920;6.536;2022-11-15T10:48:19;12.20;99.90
61016;DHT22;46902;52.920;6.536;2022-11-15T10:50:47;12.20;99.90
61016;DHT22;46902;52.920;6.536;2022-11-15T10:53:21;12.20;99.90
61016;DHT22;46902;52.920;6.536;2022-11-15T10:55:50;12.30;99.90
61016;DHT22;46902;52.920;6.536;2022-11-15T10:58:39;12.40;99.90
61016;DHT22;46902;52.920;6.536;2022-11-15T11:01:29;12.50;99.90
61016;DHT22;46902;52.920;6.536;2022-11-15T11:04:08;12.70;99.90
61016;DHT22;46902;52.920;6.536;2022-11-15T11:06:54;13.00;99.90
61016;DHT22;46902;52.920;6.536;2022-11-15T11:09:32;13.80;99.90
61016;DHT22;46902;52.920;6.536;2022-11-15T11:11:59;14.20;99.90
61016;DHT22;46902;52.920;6.536;2022-11-15T11:14:30;14.20;99.90
61016;DHT22;46902;52.920;6.536;2022-11-15T11:19:52;14.30;99.90
61016;DHT22;46902;52.920;6.536;2022-11-15T11:28:11;14.00;99.90
61016;DHT22;46902;52.920;6.536;2022-11-15T11:31:02;13.80;99.90
61016;DHT22;46902;52.920;6.536;2022-11-15T11:33:33;13.40;99.90
61016;DHT22;46902;52.920;6.536;2022-11-15T11:36:30;13.30;99.90
61016;DHT22;46902;52.920;6.536;2022-11-15T11:44:58;13.10;99.90
61016;DHT22;46902;52.920;6.536;2022-11-15T11:47:51;13.10;99.90
61016;DHT22;46902;52.920;6.536;2022-11-15T11:50:23;13.20;99.90
61016;DHT22;46902;52.920;6.536;2022-11-15T11:55:31;13.20;99.90
61016;DHT22;46902;52.920;6.536;2022-11-15T11:58:14;13.20;99.90
61016;DHT22;46902;52.920;6.536;2022-11-15T12:00:46;13.20;99.90
61016;DHT22;46902;52.920;6.536;2022-11-15T12:03:26;13.10;99.90
61016;DHT22;46902;52.920;6.536;2022-11-15T12:06:00;13.10;99.90
61016;DHT22;46902;52.920;6.536;2022-11-15T12:12:17;13.40;99.90
61016;DHT22;46902;52.920;6.536;2022-11-15T12:17:28;13.90;99.90
61016;DHT22;46902;52.920;6.536;2022-11-15T12:20:02;13.80;99.90
61016;DHT22;46902;52.920;6.536;2022-11-15T12:25:29;14.70;99.90
61016;DHT22;46902;52.920;6.536;2022-11-15T12:28:19;16.20;99.90
61016;DHT22;46902;52.920;6.536;2022-11-15T12:30:54;17.90;99.90
61016;DHT22;46902;52.920;6.536;2022-11-15T12:36:04;20.10;98.10
61016;DHT22;46902;52.920;6.536;2022-11-15T12:38:50;20.00;95.60
61016;DHT22;46902;52.920;6.536;2022-11-15T12:41:18;19.10;94.30
61016;DHT22;46902;52.920;6.536;2022-11-15T12:43:45;18.60;96.20
61016;DHT22;46902;52.920;6.536;2022-11-15T12:46:23;17.90;96.90
61016;DHT22;46902;52.920;6.536;2022-11-15T12:48:52;17.20;97.20
61016;DHT22;46902;52.920;6.536;2022-11-15T12:52:03;16.60;98.60
61016;DHT22;46902;52.920;6.536;2022-11-15T13:02:33;15.00;99.90
61016;DHT22;46902;52.920;6.536;2022-11-15T13:17:49;16.10;99.10
61016;DHT22;46902;52.920;6.536;2022-11-15T13:22:44;15.70;99.90
61016;DHT22;46902;52.920;6.536;2022-11-15T13:25:27;15.40;99.90
61016;DHT22;46902;52.920;6.536;2022-11-15T13:27:54;15.10;99.40
61016;DHT22;46902;52.920;6.536;2022-11-15T13:30:25;15.30;99.60
61016;DHT22;46902;52.920;6.536;2022-11-15T13:32:51;15.60;98.90
61016;DHT22;46902;52.920;6.536;2022-11-15T13:35:22;15.90;98.40
61016;DHT22;46902;52.920;6.536;2022-11-15T13:37:49;16.00;97.70
61016;DHT22;46902;52.920;6.536;2022-11-15T13:42:45;15.70;97.80
61016;DHT22;46902;52.920;6.536;2022-11-15T13:45:14;15.40;98.00
61016;DHT22;46902;52.920;6.536;2022-11-15T13:47:40;15.20;98.20
61016;DHT22;46902;52.920;6.536;2022-11-15T13:50:10;14.90;98.80
61016;DHT22;46902;52.920;6.536;2022-11-15T13:52:37;14.70;99.00
61016;DHT22;46902;52.920;6.536;2022-11-15T13:55:17;14.60;99.40
61016;DHT22;46902;52.920;6.536;2022-11-15T13:57:44;14.50;99.60
61016;DHT22;46902;52.920;6.536;2022-11-15T14:00:32;14.40;99.90
61016;DHT22;46902;52.920;6.536;2022-11-15T14:03:21;14.30;99.30
61016;DHT22;46902;52.920;6.536;2022-11-15T14:06:09;14.20;99.50
61016;DHT22;46902;52.920;6.536;2022-11-15T14:11:27;13.90;99.50
61016;DHT22;46902;52.920;6.536;2022-11-15T14:16:36;13.80;99.20
61016;DHT22;46902;52.920;6.536;2022-11-15T14:19:02;13.60;99.50
61016;DHT22;46902;52.920;6.536;2022-11-15T14:21:28;13.60;99.40
61016;DHT22;46902;52.920;6.536;2022-11-15T14:24:17;13.50;99.60
61016;DHT22;46902;52.920;6.536;2022-11-15T14:26:43;13.40;99.20
61016;DHT22;46902;52.920;6.536;2022-11-15T14:29:23;13.30;99.70
61016;DHT22;46902;52.920;6.536;2022-11-15T14:31:49;13.30;99.30
61016;DHT22;46902;52.920;6.536;2022-11-15T14:34:14;13.10;99.70
61016;DHT22;46902;52.920;6.536;2022-11-15T14:36:40;13.10;99.90
61016;DHT22;46902;52.920;6.536;2022-11-15T14:39:05;13.00;99.90
61016;DHT22;46902;52.920;6.536;2022-11-15T14:41:35;13.00;99.90
61016;DHT22;46902;52.920;6.536;2022-11-15T14:44:04;12.90;99.90
61016;DHT22;46902;52.920;6.536;2022-11-15T14:46:30;12.80;99.90
61016;DHT22;46902;52.920;6.536;2022-11-15T14:48:56;12.80;99.90
61016;DHT22;46902;52.920;6.536;2022-11-15T14:51:21;12.70;99.90
61016;DHT22;46902;52.920;6.536;2022-11-15T14:53:47;12.60;99.90
61016;DHT22;46902;52.920;6.536;2022-11-15T14:56:14;12.60;99.90
61016;DHT22;46902;52.920;6.536;2022-11-15T14:58:40;12.60;99.90
61016;DHT22;46902;52.920;6.536;2022-11-15T15:01:21;12.50;99.90
61016;DHT22;46902;52.920;6.536;2022-11-15T15:03:48;12.60;99.90
61016;DHT22;46902;52.920;6.536;2022-11-15T15:06:14;12.50;99.90
61016;DHT22;46902;52.920;6.536;2022-11-15T15:08:40;12.50;99.90
61016;DHT22;46902;52.920;6.536;2022-11-15T15:11:23;12.40;99.90
61016;DHT22;46902;52.920;6.536;2022-11-15T15:13:49;12.40;99.90
61016;DHT22;46902;52.920;6.536;2022-11-15T15:16:15;12.40;99.90
61016;DHT22;46902;52.920;6.536;2022-11-15T15:18:40;12.30;99.90
61016;DHT22;46902;52.920;6.536;2022-11-15T15:21:24;12.30;99.90
61016;DHT22;46902;52.920;6.536;2022-11-15T15:23:50;12.30;99.90
61016;DHT22;46902;52.920;6.536;2022-11-15T15:26:16;12.20;99.90
61016;DHT22;46902;52.920;6.536;2022-11-15T15:28:42;12.20;99.90
61016;DHT22;46902;52.920;6.536;2022-11-15T15:31:09;12.20;99.90
61016;DHT22;46902;52.920;6.536;2022-11-15T15:33:35;12.20;99.90
61016;DHT22;46902;52.920;6.536;2022-11-15T15:36:00;12.20;99.90
61016;DHT22;46902;52.920;6.536;2022-11-15T15:38:26;12.20;99.90
61016;DHT22;46902;52.920;6.536;2022-11-15T15:40:52;12.20;99.90
61016;DHT22;46902;52.920;6.536;2022-11-15T15:43:17;12.10;99.90
61016;DHT22;46902;52.920;6.536;2022-11-15T15:45:43;12.10;99.90
61016;DHT22;46902;52.920;6.536;2022-11-15T15:48:15;12.10;99.90
61016;DHT22;46902;52.920;6.536;2022-11-15T15:50:41;12.10;99.90
61016;DHT22;46902;52.920;6.536;2022-11-15T15:53:11;12.10;99.90
61016;DHT22;46902;52.920;6.536;2022-11-15T15:55:37;12.00;99.90
61016;DHT22;46902;52.920;6.536;2022-11-15T15:58:04;12.00;99.90
61016;DHT22;46902;52.920;6.536;2022-11-15T16:00:30;12.00;99.90
61016;DHT22;46902;52.920;6.536;2022-11-15T16:02:58;11.90;99.90
61016;DHT22;46902;52.920;6.536;2022-11-15T16:05:23;11.90;99.90
61016;DHT22;46902;52.920;6.536;2022-11-15T16:07:49;11.80;99.90
61016;DHT22;46902;52.920;6.536;2022-11-15T16:10:20;11.80;99.90
61016;DHT22;46902;52.920;6.536;2022-11-15T16:12:46;11.80;99.90
61016;DHT22;46902;52.920;6.536;2022-11-15T16:15:11;11.80;99.90
61016;DHT22;46902;52.920;6.536;2022-11-15T16:17:40;11.70;99.90
61016;DHT22;46902;52.920;6.536;2022-11-15T16:20:06;11.70;99.90
61016;DHT22;46902;52.920;6.536;2022-11-15T16:22:32;11.70;99.90
61016;DHT22;46902;52.920;6.536;2022-11-15T16:24:58;11.70;99.90
61016;DHT22;46902;52.920;6.536;2022-11-15T16:27:23;11.70;99.90
61016;DHT22;46902;52.920;6.536;2022-11-15T16:29:49;11.70;99.90
61016;DHT22;46902;52.920;6.536;2022-11-15T16:32:15;11.70;99.90
61016;DHT22;46902;52.920;6.536;2022-11-15T16:34:41;11.70;99.90
61016;DHT22;46902;52.920;6.536;2022-11-15T16:37:33;11.70;99.90
61016;DHT22;46902;52.920;6.536;2022-11-15T16:39:58;11.70;99.90
61016;DHT22;46902;52.920;6.536;2022-11-15T16:42:24;11.60;99.90
61016;DHT22;46902;52.920;6.536;2022-11-15T16:44:49;11.70;99.90
61016;DHT22;46902;52.920;6.536;2022-11-15T16:47:17;11.70;99.90
61016;DHT22;46902;52.920;6.536;2022-11-15T16:49:45;11.70;99.90
61016;DHT22;46902;52.920;6.536;2022-11-15T16:52:11;11.70;99.90
61016;DHT22;46902;52.920;6.536;2022-11-15T16:54:37;11.70;99.90
61016;DHT22;46902;52.920;6.536;2022-11-15T16:57:02;11.70;99.90
61016;DHT22;46902;52.920;6.536;2022-11-15T16:59:28;11.70;99.90
61016;DHT22;46902;52.920;6.536;2022-11-15T17:01:55;11.70;99.90
61016;DHT22;46902;52.920;6.536;2022-11-15T17:04:20;11.70;99.90
61016;DHT22;46902;52.920;6.536;2022-11-15T17:06:47;11.70;99.90
61016;DHT22;46902;52.920;6.536;2022-11-15T17:09:14;11.70;99.90
61016;DHT22;46902;52.920;6.536;2022-11-15T17:11:41;11.70;99.90
61016;DHT22;46902;52.920;6.536;2022-11-15T17:14:07;11.70;99.90
61016;DHT22;46902;52.920;6.536;2022-11-15T17:16:33;11.80;99.90
61016;DHT22;46902;52.920;6.536;2022-11-15T17:19:00;11.80;99.90
61016;DHT22;46902;52.920;6.536;2022-11-15T17:21:26;11.80;99.90
61016;DHT22;46902;52.920;6.536;2022-11-15T17:23:53;11.80;99.90
61016;DHT22;46902;52.920;6.536;2022-11-15T17:26:19;11.80;99.90
61016;DHT22;46902;52.920;6.536;2022-11-15T17:28:44;11.80;99.90
61016;DHT22;46902;52.920;6.536;2022-11-15T17:31:12;11.80;99.90
61016;DHT22;46902;52.920;6.536;2022-11-15T17:33:38;11.80;99.90